createdAt,value
2019-01-29T00:02:15.663Z,47.62
2019-01-29T00:04:44.042Z,47.24
2019-01-29T00:07:12.542Z,46.97
2019-01-29T00:09:40.977Z,47.80
2019-01-29T00:12:10.118Z,47.13
2019-01-29T00:14:38.510Z,47.62
2019-01-29T00:17:06.953Z,47.46
2019-01-29T00:19:35.327Z,47.55
2019-01-29T00:22:03.701Z,47.46
2019-01-29T00:24:32.080Z,47.15
2019-01-29T00:27:00.470Z,47.51
2019-01-29T00:29:28.847Z,47.40
2019-01-29T00:31:57.223Z,47.81
2019-01-29T00:34:25.606Z,47.11
2019-01-29T00:36:54.041Z,47.71
2019-01-29T00:39:22.458Z,47.67
2019-01-29T00:41:50.831Z,47.63
2019-01-29T00:44:19.203Z,47.63
2019-01-29T00:46:47.577Z,47.58
2019-01-29T00:49:15.968Z,47.25
2019-01-29T00:51:44.350Z,47.56
2019-01-29T00:54:12.734Z,47.52
2019-01-29T00:56:41.101Z,47.37
2019-01-29T00:59:10.532Z,47.37
2019-01-29T01:01:38.909Z,47.57
2019-01-29T01:04:07.276Z,47.75
2019-01-29T01:06:35.665Z,47.01
2019-01-29T01:09:05.918Z,47.40
2019-01-29T01:11:34.286Z,47.05
2019-01-29T01:14:02.667Z,47.01
2019-01-29T01:16:31.038Z,47.30
2019-01-29T01:18:59.409Z,47.20
2019-01-29T01:21:27.782Z,47.23
2019-01-29T01:23:56.174Z,47.46
2019-01-29T01:26:24.616Z,46.96
2019-01-29T01:28:52.987Z,47.07
2019-01-29T01:31:21.360Z,46.54
2019-01-29T01:33:49.729Z,47.12
2019-01-29T01:36:18.108Z,47.26
2019-01-29T01:38:46.482Z,46.97
2019-01-29T01:41:14.846Z,47.19
2019-01-29T01:43:43.238Z,47.19
2019-01-29T01:46:11.608Z,47.45
2019-01-29T01:48:40.800Z,46.90
2019-01-29T01:51:09.185Z,47.14
2019-01-29T01:53:37.560Z,46.80
2019-01-29T01:56:05.928Z,47.32
2019-01-29T01:58:34.296Z,47.29
2019-01-29T02:01:02.754Z,46.82
2019-01-29T02:03:31.121Z,47.07
2019-01-29T02:05:59.515Z,47.10
2019-01-29T02:08:27.877Z,46.99
2019-01-29T02:10:56.254Z,47.36
2019-01-29T02:13:24.618Z,46.92
2019-01-29T02:15:52.992Z,47.42
2019-01-29T02:18:21.374Z,47.46
2019-01-29T02:20:49.759Z,47.14
2019-01-29T02:23:18.128Z,47.16
2019-01-29T02:25:46.510Z,46.86
2019-01-29T02:28:14.886Z,47.37
2019-01-29T02:30:43.261Z,47.25
2019-01-29T02:33:11.684Z,47.05
2019-01-29T02:35:40.001Z,47.19
2019-01-29T02:38:08.388Z,47.15
2019-01-29T02:40:36.769Z,46.87
2019-01-29T02:43:05.303Z,46.69
2019-01-29T02:45:33.763Z,47.03
2019-01-29T02:48:02.151Z,47.09
2019-01-29T02:50:30.542Z,46.75
2019-01-29T02:52:58.960Z,47.23
2019-01-29T02:55:27.345Z,46.93
2019-01-29T02:57:55.718Z,46.84
2019-01-29T03:00:26.442Z,47.16
2019-01-29T03:02:54.983Z,47.18
2019-01-29T03:05:23.439Z,47.05
2019-01-29T03:07:52.242Z,46.94
2019-01-29T03:10:22.864Z,47.18
2019-01-29T03:12:51.303Z,46.97
2019-01-29T03:15:22.719Z,46.73
2019-01-29T03:17:51.154Z,47.07
2019-01-29T03:20:19.603Z,46.80
2019-01-29T03:22:47.970Z,46.75
2019-01-29T03:25:16.439Z,46.87
2019-01-29T03:27:44.817Z,46.81
2019-01-29T03:30:15.442Z,46.67
2019-01-29T03:32:43.826Z,46.79
2019-01-29T03:35:12.347Z,46.97
2019-01-29T03:37:41.666Z,45.82
2019-01-29T03:40:15.620Z,46.57
2019-01-29T03:42:44.001Z,47.10
2019-01-29T03:45:15.126Z,46.54
2019-01-29T03:47:43.755Z,46.57
2019-01-29T03:50:14.571Z,46.77
2019-01-29T03:52:43.077Z,46.95
2019-01-29T03:55:11.979Z,46.43
2019-01-29T03:57:40.420Z,46.77
2019-01-29T04:00:11.836Z,47.13
2019-01-29T04:02:40.202Z,46.97
2019-01-29T04:05:08.821Z,46.80
2019-01-29T04:07:37.203Z,46.71
2019-01-29T04:10:08.699Z,46.91
2019-01-29T04:12:37.065Z,46.91
2019-01-29T04:15:08.532Z,46.89
2019-01-29T04:17:36.909Z,46.81
2019-01-29T04:20:08.026Z,46.38
2019-01-29T04:22:36.404Z,46.18
2019-01-29T04:25:05.813Z,46.50
2019-01-29T04:27:34.270Z,46.42
2019-01-29T04:30:02.633Z,46.97
2019-01-29T04:32:31.017Z,46.32
2019-01-29T04:34:59.378Z,47.09
2019-01-29T04:37:27.756Z,46.97
2019-01-29T04:39:56.146Z,46.96
2019-01-29T04:42:24.526Z,46.25
2019-01-29T04:44:52.898Z,45.99
2019-01-29T04:47:21.273Z,46.98
2019-01-29T04:49:49.638Z,46.62
2019-01-29T04:52:18.029Z,46.54
2019-01-29T04:54:46.397Z,46.67
2019-01-29T04:57:14.778Z,46.51
2019-01-29T04:59:43.156Z,46.60
2019-01-29T05:02:12.303Z,46.31
2019-01-29T05:04:40.670Z,46.79
2019-01-29T05:07:09.056Z,46.86
2019-01-29T05:09:37.436Z,46.51
2019-01-29T05:12:05.823Z,46.06
2019-01-29T05:14:34.191Z,46.43
2019-01-29T05:17:02.570Z,46.84
2019-01-29T05:19:30.943Z,46.60
2019-01-29T05:21:59.320Z,46.07
2019-01-29T05:24:27.703Z,46.90
2019-01-29T05:26:56.062Z,46.79
2019-01-29T05:29:24.448Z,46.16
2019-01-29T05:31:52.829Z,46.49
2019-01-29T05:34:21.200Z,46.43
2019-01-29T05:36:49.587Z,46.00
2019-01-29T05:39:17.950Z,45.99
2019-01-29T05:41:46.329Z,46.52
2019-01-29T05:44:14.695Z,45.98
2019-01-29T05:46:43.098Z,46.32
2019-01-29T05:49:11.469Z,46.64
2019-01-29T05:51:40.688Z,46.29
2019-01-29T05:54:15.794Z,46.50
2019-01-29T05:56:39.194Z,46.52
2019-01-29T05:59:07.557Z,46.31
2019-01-29T06:01:36.802Z,46.05
2019-01-29T06:04:05.339Z,46.12
2019-01-29T06:06:33.732Z,46.13
2019-01-29T06:09:02.078Z,46.60
2019-01-29T06:11:30.459Z,45.97
2019-01-29T06:13:58.833Z,46.61
2019-01-29T06:16:27.217Z,46.13
2019-01-29T06:18:55.594Z,45.71
2019-01-29T06:21:23.974Z,46.58
2019-01-29T06:23:52.342Z,46.85
2019-01-29T06:26:20.727Z,46.32
2019-01-29T06:28:49.086Z,45.86
2019-01-29T06:31:17.460Z,46.14
2019-01-29T06:33:45.841Z,46.46
2019-01-29T06:36:14.207Z,46.33
2019-01-29T06:38:43.127Z,46.68
2019-01-29T06:41:11.476Z,46.39
2019-01-29T06:43:39.857Z,46.88
2019-01-29T06:46:08.225Z,46.87
2019-01-29T06:48:36.604Z,46.46
2019-01-29T06:51:05.385Z,46.83
2019-01-29T06:53:33.766Z,46.67
2019-01-29T06:56:02.134Z,46.64
2019-01-29T06:58:30.525Z,46.89
2019-01-29T07:00:58.898Z,46.92
2019-01-29T07:03:27.269Z,46.56
2019-01-29T07:05:55.658Z,46.48
2019-01-29T07:08:24.934Z,46.36
2019-01-29T07:10:53.739Z,46.73
2019-01-29T07:13:22.123Z,45.88
2019-01-29T07:16:10.162Z,46.13
2019-01-29T07:18:41.093Z,46.65
2019-01-29T07:21:09.838Z,46.55
2019-01-29T07:23:38.385Z,46.20
2019-01-29T07:26:06.751Z,46.56
2019-01-29T07:28:35.131Z,46.45
2019-01-29T07:31:03.839Z,46.43
2019-01-29T07:33:32.210Z,45.92
2019-01-29T07:36:00.572Z,46.48
2019-01-29T07:38:28.955Z,46.31
2019-01-29T07:40:57.322Z,46.39
2019-01-29T07:43:25.698Z,46.73
2019-01-29T07:45:54.061Z,47.32
2019-01-29T07:48:22.440Z,47.38
2019-01-29T07:50:50.898Z,48.02
2019-01-29T07:53:19.600Z,48.04
2019-01-29T07:55:47.934Z,47.58
2019-01-29T07:58:16.592Z,48.07
2019-01-29T08:00:44.960Z,48.71
2019-01-29T08:03:13.727Z,47.84
2019-01-29T08:05:42.263Z,47.78
2019-01-29T08:08:10.659Z,48.39
2019-01-29T08:10:42.051Z,48.32
2019-01-29T08:13:10.437Z,48.10
2019-01-29T08:15:40.736Z,48.56
2019-01-29T08:18:09.564Z,47.46
2019-01-29T08:20:37.929Z,48.20
2019-01-29T08:23:06.318Z,47.12
2019-01-29T08:25:34.686Z,48.25
2019-01-29T08:28:03.304Z,47.84
2019-01-29T08:30:33.746Z,48.07
2019-01-29T08:33:02.124Z,48.41
2019-01-29T08:35:30.554Z,48.16
2019-01-29T08:37:58.928Z,47.27
2019-01-29T08:40:27.310Z,48.06
2019-01-29T08:42:55.709Z,48.40
2019-01-29T08:45:24.083Z,47.88
2019-01-29T08:47:52.461Z,47.77
2019-01-29T08:50:26.513Z,47.89
2019-01-29T08:52:54.902Z,48.26
2019-01-29T08:55:23.345Z,48.09
2019-01-29T08:57:51.731Z,48.23
2019-01-29T09:00:21.437Z,48.33
2019-01-29T09:02:49.895Z,47.51
2019-01-29T09:05:18.270Z,47.84
2019-01-29T09:07:46.644Z,48.41
2019-01-29T09:10:19.503Z,48.06
2019-01-29T09:12:48.031Z,48.02
2019-01-29T09:15:21.523Z,48.34
2019-01-29T09:17:50.080Z,47.93
2019-01-29T09:20:20.482Z,48.05
2019-01-29T09:22:48.991Z,47.81
2019-01-29T09:25:20.831Z,48.11
2019-01-29T09:27:47.536Z,47.37
2019-01-29T09:30:20.586Z,48.08
2019-01-29T09:32:49.190Z,48.13
2019-01-29T09:35:17.568Z,48.10
2019-01-29T09:37:45.944Z,47.85
2019-01-29T09:40:30.673Z,47.67
2019-01-29T09:42:59.052Z,48.07
2019-01-29T09:45:27.596Z,48.05
2019-01-29T09:47:56.042Z,47.95
2019-01-29T09:50:24.584Z,48.19
2019-01-29T09:52:53.438Z,47.81
2019-01-29T09:55:28.805Z,47.88
2019-01-29T09:57:53.355Z,48.05
2019-01-29T10:00:30.117Z,47.93
2019-01-29T10:02:58.576Z,47.58
2019-01-29T10:05:27.182Z,47.81
2019-01-29T10:07:55.733Z,47.66
2019-01-29T10:10:24.245Z,47.83
2019-01-29T10:12:52.684Z,48.00
2019-01-29T10:15:29.308Z,45.40
2019-01-29T10:17:57.683Z,48.11
2019-01-29T10:20:27.113Z,47.52
2019-01-29T10:22:55.485Z,46.77
2019-01-29T10:25:23.939Z,47.85
2019-01-29T10:27:52.315Z,47.79
2019-01-29T10:30:23.642Z,47.25
2019-01-29T10:32:52.078Z,47.76
2019-01-29T10:35:22.807Z,47.96
2019-01-29T10:37:51.177Z,48.18
2019-01-29T10:40:21.792Z,47.98
2019-01-29T10:42:50.334Z,47.70
2019-01-29T10:45:20.753Z,47.80
2019-01-29T10:47:49.129Z,48.11
2019-01-29T10:50:23.043Z,47.98
2019-01-29T10:52:52.241Z,48.06
2019-01-29T10:55:20.631Z,47.76
2019-01-29T10:57:49.291Z,48.20
2019-01-29T11:00:32.807Z,47.78
2019-01-29T11:03:01.616Z,47.84
2019-01-29T11:05:30.333Z,47.73
2019-01-29T11:07:58.696Z,48.01
2019-01-29T11:10:27.077Z,47.87
2019-01-29T11:12:55.441Z,48.00
2019-01-29T11:15:29.521Z,47.70
2019-01-29T11:17:58.325Z,47.83
2019-01-29T11:20:26.703Z,47.79
2019-01-29T11:22:55.239Z,47.79
2019-01-29T11:25:29.235Z,47.73
2019-01-29T11:27:57.602Z,47.56
2019-01-29T11:30:33.399Z,47.70
2019-01-29T11:33:01.762Z,47.59
2019-01-29T11:35:30.310Z,47.47
2019-01-29T11:37:58.754Z,47.54
2019-01-29T11:40:32.013Z,47.41
2019-01-29T11:43:00.513Z,47.50
2019-01-29T11:45:37.800Z,47.40
2019-01-29T11:48:06.241Z,47.40
2019-01-29T11:50:34.626Z,47.34
2019-01-29T11:53:02.983Z,47.31
2019-01-29T11:55:31.369Z,47.31
2019-01-29T11:57:59.736Z,47.22
2019-01-29T12:00:38.041Z,47.15
2019-01-29T12:03:06.751Z,47.01
2019-01-29T12:05:35.203Z,47.11
2019-01-29T12:08:04.034Z,47.05
2019-01-29T12:10:32.421Z,47.11
2019-01-29T12:13:02.414Z,47.15
2019-01-29T12:15:39.732Z,46.83
2019-01-29T12:18:08.366Z,46.78
2019-01-29T12:20:36.755Z,46.56
2019-01-29T12:23:05.300Z,46.50
2019-01-29T12:25:33.695Z,46.41
2019-01-29T12:28:02.056Z,46.23
2019-01-29T12:30:30.971Z,46.24
2019-01-29T12:33:01.874Z,45.93
2019-01-29T12:35:30.427Z,45.80
2019-01-29T12:37:58.800Z,45.82
2019-01-29T12:40:27.187Z,45.74
2019-01-29T12:42:55.562Z,45.66
2019-01-29T12:45:24.623Z,45.82
2019-01-29T12:47:53.162Z,45.66
2019-01-29T12:50:30.151Z,45.72
2019-01-29T12:53:00.514Z,45.70
2019-01-29T12:55:28.969Z,45.47
2019-01-29T12:57:57.423Z,45.60
2019-01-29T13:00:27.436Z,45.51
2019-01-29T13:02:55.797Z,45.46
2019-01-29T13:05:24.269Z,45.62
2019-01-29T13:07:52.776Z,45.46
2019-01-29T13:10:25.849Z,45.54
2019-01-29T13:12:55.020Z,45.41
2019-01-29T13:15:34.089Z,45.33
2019-01-29T13:18:02.895Z,45.60
2019-01-29T13:20:39.227Z,45.52
2019-01-29T13:23:07.676Z,45.60
2019-01-29T13:25:36.051Z,45.51
2019-01-29T13:28:05.170Z,45.46
2019-01-29T13:30:35.794Z,45.69
2019-01-29T13:33:06.811Z,45.65
2019-01-29T13:35:36.933Z,45.40
2019-01-29T13:38:06.742Z,45.65
2019-01-29T13:40:35.122Z,45.59
2019-01-29T13:43:03.483Z,45.62
2019-01-29T13:45:31.865Z,45.33
2019-01-29T13:48:00.238Z,45.50
2019-01-29T13:50:37.694Z,45.64
2019-01-29T13:53:06.710Z,45.55
2019-01-29T13:55:35.258Z,45.76
2019-01-29T13:58:04.314Z,45.30
2019-01-29T14:00:34.233Z,45.79
2019-01-29T14:03:03.290Z,46.07
2019-01-29T14:05:31.653Z,46.14
2019-01-29T14:08:00.054Z,46.31
2019-01-29T14:10:28.859Z,46.39
2019-01-29T14:12:57.242Z,46.47
2019-01-29T14:15:34.007Z,46.64
2019-01-29T14:18:02.383Z,46.19
2019-01-29T14:20:30.745Z,46.51
2019-01-29T14:22:59.255Z,46.57
2019-01-29T14:25:27.790Z,46.44
2019-01-29T14:27:56.183Z,46.14
2019-01-29T14:30:29.136Z,46.68
2019-01-29T14:32:57.700Z,46.59
2019-01-29T14:35:26.062Z,46.92
2019-01-29T14:38:12.004Z,46.27
2019-01-29T14:40:40.371Z,45.72
2019-01-29T14:43:11.495Z,46.52
2019-01-29T14:45:39.864Z,46.81
2019-01-29T14:48:08.238Z,46.38
2019-01-29T14:50:36.611Z,46.60
2019-01-29T14:53:05.346Z,46.50
2019-01-29T14:55:33.687Z,46.92
2019-01-29T14:58:02.072Z,46.39
2019-01-29T15:00:33.702Z,46.93
2019-01-29T15:03:02.077Z,47.41
2019-01-29T15:05:30.526Z,47.03
2019-01-29T15:07:58.991Z,46.56
2019-01-29T15:10:29.564Z,46.20
2019-01-29T15:12:57.950Z,46.01
2019-01-29T15:15:38.809Z,46.82
2019-01-29T15:18:14.999Z,47.15
2019-01-29T15:20:43.430Z,46.31
2019-01-29T15:23:11.887Z,47.14
2019-01-29T15:25:40.251Z,46.78
2019-01-29T15:28:08.626Z,47.05
2019-01-29T15:30:36.992Z,46.78
2019-01-29T15:33:05.432Z,46.99
2019-01-29T15:35:33.809Z,46.88
2019-01-29T15:38:02.206Z,46.49
2019-01-29T15:40:30.581Z,46.84
2019-01-29T15:42:58.964Z,46.64
2019-01-29T15:45:29.136Z,47.22
2019-01-29T15:47:57.509Z,46.88
2019-01-29T15:50:31.120Z,46.91
2019-01-29T15:52:59.672Z,47.04
2019-01-29T15:55:28.180Z,47.06
2019-01-29T15:57:56.705Z,46.47
2019-01-29T16:00:35.602Z,46.84
2019-01-29T16:03:04.043Z,46.81
2019-01-29T16:05:34.252Z,46.78
2019-01-29T16:08:02.797Z,46.76
2019-01-29T16:10:39.891Z,46.26
2019-01-29T16:13:07.187Z,46.40
2019-01-29T16:15:35.611Z,46.90
2019-01-29T16:18:04.110Z,46.68
2019-01-29T16:20:32.472Z,45.88
2019-01-29T16:23:00.863Z,45.23
2019-01-29T16:25:30.974Z,45.48
2019-01-29T16:27:59.348Z,45.51
2019-01-29T16:30:38.565Z,45.85
2019-01-29T16:33:07.011Z,45.32
2019-01-29T16:35:39.884Z,45.95
2019-01-29T16:38:09.235Z,45.83
2019-01-29T16:40:40.027Z,46.21
2019-01-29T16:43:08.469Z,46.08
2019-01-29T16:45:37.270Z,45.42
2019-01-29T16:48:08.152Z,45.61
2019-01-29T16:50:36.591Z,46.43
2019-01-29T16:53:06.608Z,46.07
2019-01-29T16:55:35.292Z,45.60
2019-01-29T16:58:04.633Z,45.86
2019-01-29T17:00:34.538Z,44.89
2019-01-29T17:03:02.993Z,46.63
2019-01-29T17:05:31.705Z,45.91
2019-01-29T17:08:00.159Z,45.20
2019-01-29T17:10:30.470Z,46.07
2019-01-29T17:12:58.855Z,45.78
2019-01-29T17:15:32.163Z,46.03
2019-01-29T17:18:02.020Z,45.66
2019-01-29T17:20:44.052Z,44.91
2019-01-29T17:23:12.497Z,45.94
2019-01-29T17:25:41.052Z,45.72
2019-01-29T17:28:09.487Z,44.86
2019-01-29T17:30:40.438Z,46.43
2019-01-29T17:33:09.269Z,45.23
2019-01-29T17:35:39.581Z,46.01
2019-01-29T17:38:08.108Z,44.95
2019-01-29T17:40:36.468Z,44.56
2019-01-29T17:43:05.385Z,45.23
2019-01-29T17:45:42.490Z,45.27
2019-01-29T17:48:10.874Z,44.85
2019-01-29T17:50:41.580Z,45.28
2019-01-29T17:53:10.020Z,44.64
2019-01-29T17:55:39.631Z,45.26
2019-01-29T17:58:09.153Z,45.79
2019-01-29T18:00:39.159Z,45.53
2019-01-29T18:03:07.989Z,43.13
2019-01-29T18:05:36.434Z,44.92
2019-01-29T18:08:05.427Z,46.47
2019-01-29T18:10:33.794Z,42.10
2019-01-29T18:13:02.173Z,42.25
2019-01-29T18:15:31.590Z,42.26
2019-01-29T18:17:59.973Z,43.68
2019-01-29T18:20:28.419Z,43.68
2019-01-29T18:22:56.849Z,42.13
2019-01-29T18:25:25.219Z,41.98
2019-01-29T18:28:00.904Z,43.00
2019-01-29T18:30:36.898Z,43.01
2019-01-29T18:33:05.730Z,41.49
2019-01-29T18:35:34.070Z,44.33
2019-01-29T18:38:02.440Z,46.20
2019-01-29T18:40:36.982Z,42.63
2019-01-29T18:43:05.525Z,42.98
2019-01-29T18:45:33.898Z,44.64
2019-01-29T18:48:02.283Z,45.37
2019-01-29T18:50:30.660Z,44.75
2019-01-29T18:52:59.029Z,47.00
2019-01-29T18:55:27.700Z,44.23
2019-01-29T18:57:56.069Z,41.03
2019-01-29T19:00:26.095Z,41.16
2019-01-29T19:02:54.523Z,40.71
2019-01-29T19:05:24.854Z,36.60
2019-01-29T19:07:53.222Z,36.48
2019-01-29T19:10:22.409Z,36.57
2019-01-29T19:12:50.927Z,43.76
2019-01-29T19:15:24.566Z,42.12
2019-01-29T19:17:52.942Z,48.72
2019-01-29T19:20:26.169Z,50.69
2019-01-29T19:22:54.808Z,50.97
2019-01-29T19:25:23.656Z,50.22
2019-01-29T19:27:52.576Z,48.58
2019-01-29T19:30:32.389Z,49.43
2019-01-29T19:33:00.763Z,48.74
2019-01-29T19:35:29.309Z,47.60
2019-01-29T19:37:57.766Z,46.75
2019-01-29T19:40:26.292Z,47.17
2019-01-29T19:42:54.686Z,40.03
2019-01-29T19:45:28.804Z,41.05
2019-01-29T19:47:58.670Z,39.76
2019-01-29T19:50:29.320Z,40.88
2019-01-29T19:52:59.283Z,42.55
2019-01-29T19:55:28.099Z,43.51
2019-01-29T19:57:56.488Z,42.77
2019-01-29T20:00:33.600Z,41.76
2019-01-29T20:03:02.123Z,41.29
2019-01-29T20:05:30.543Z,42.77
2019-01-29T20:07:58.971Z,42.33
2019-01-29T20:10:27.369Z,41.45
2019-01-29T20:12:55.756Z,43.69
2019-01-29T20:15:25.695Z,43.86
2019-01-29T20:17:56.022Z,42.93
2019-01-29T20:20:33.711Z,42.48
2019-01-29T20:23:07.962Z,43.43
2019-01-29T20:25:32.379Z,46.34
2019-01-29T20:28:00.754Z,44.08
2019-01-29T20:30:32.046Z,41.28
2019-01-29T20:33:00.427Z,45.09
2019-01-29T20:35:29.083Z,40.75
2019-01-29T20:37:57.458Z,40.96
2019-01-29T20:40:25.925Z,40.88
2019-01-29T20:42:54.312Z,40.51
2019-01-29T20:45:22.875Z,41.01
2019-01-29T20:47:52.727Z,39.04
2019-01-29T20:50:27.217Z,38.53
2019-01-29T20:52:59.493Z,39.41
2019-01-29T20:55:27.960Z,40.07
2019-01-29T20:57:56.360Z,40.44
2019-01-29T21:00:28.144Z,41.93
2019-01-29T21:02:56.584Z,38.10
2019-01-29T21:05:24.975Z,39.53
2019-01-29T21:07:53.441Z,38.53
2019-01-29T21:10:23.906Z,42.31
2019-01-29T21:12:52.350Z,42.31
2019-01-29T21:15:22.843Z,38.09
2019-01-29T21:17:51.360Z,39.07
2019-01-29T21:20:30.658Z,40.14
2019-01-29T21:22:59.239Z,36.28
2019-01-29T21:25:27.728Z,39.38
2019-01-29T21:27:56.228Z,35.10
2019-01-29T21:30:35.466Z,38.37
2019-01-29T21:33:03.915Z,38.74
2019-01-29T21:35:32.312Z,36.48
2019-01-29T21:38:00.693Z,38.00
2019-01-29T21:40:29.155Z,40.76
2019-01-29T21:42:57.527Z,38.89
2019-01-29T21:45:27.024Z,38.06
2019-01-29T21:47:57.843Z,39.38
2019-01-29T21:50:31.413Z,37.84
2019-01-29T21:53:03.046Z,39.17
2019-01-29T21:55:38.348Z,38.93
2019-01-29T21:58:07.115Z,38.96
2019-01-29T22:00:37.843Z,41.03
2019-01-29T22:03:06.957Z,38.94
2019-01-29T22:05:35.598Z,38.45
2019-01-29T22:08:07.949Z,40.81
2019-01-29T22:10:36.492Z,38.51
2019-01-29T22:13:06.317Z,36.78
2019-01-29T22:15:34.707Z,40.80
2019-01-29T22:18:03.114Z,38.40
2019-01-29T22:20:34.538Z,40.68
2019-01-29T22:23:03.034Z,39.58
2019-01-29T22:25:32.394Z,38.67
2019-01-29T22:28:03.008Z,40.36
2019-01-29T22:30:39.833Z,39.37
2019-01-29T22:33:08.343Z,38.35
2019-01-29T22:35:36.794Z,41.26
2019-01-29T22:38:06.120Z,38.31
2019-01-29T22:40:34.608Z,40.08
2019-01-29T22:43:02.994Z,39.20
2019-01-29T22:45:31.432Z,40.60
2019-01-29T22:47:59.933Z,38.66
2019-01-29T22:50:30.413Z,40.54
2019-01-29T22:52:58.808Z,39.47
2019-01-29T22:55:27.222Z,42.36
2019-01-29T22:57:55.707Z,40.08
2019-01-29T23:00:31.767Z,41.89
2019-01-29T23:03:00.172Z,40.65
2019-01-29T23:05:28.605Z,39.32
2019-01-29T23:07:57.034Z,40.60
2019-01-29T23:10:25.403Z,38.74
2019-01-29T23:12:53.781Z,39.43
2019-01-29T23:15:22.226Z,36.26
2019-01-29T23:17:53.048Z,38.42
2019-01-29T23:20:21.454Z,38.10
2019-01-29T23:22:49.829Z,37.02
2019-01-29T23:25:18.214Z,36.46
2019-01-29T23:27:46.684Z,36.48
2019-01-29T23:30:20.304Z,36.85
2019-01-29T23:32:48.678Z,40.72
2019-01-29T23:35:17.053Z,41.06
2019-01-29T23:37:45.436Z,35.46
2019-01-29T23:40:17.047Z,38.67
2019-01-29T23:42:45.421Z,41.14
2019-01-29T23:45:15.429Z,40.88
2019-01-29T23:47:43.816Z,37.32
2019-01-29T23:50:14.234Z,38.82
2019-01-29T23:52:42.630Z,36.45
2019-01-29T23:55:11.933Z,37.18
2019-01-29T23:57:40.309Z,40.11
